»·PEaware :: N101HZ KOAK-KVNY

N101HZ :: KOAK-KVNY

FLIGHT INFORMATION

Flight Status: Arrived
Operator: Privately registered:
United States
More flights under this callsign
Pilot: Chris A. (85)
Aircraft: DASSAULT AVIATION FALCON 2000
(F2TH)
More flights by this aircraft type
Origin: KOAK Metro Oakland Intl
United States
Destination: KVNY Van Nuys
United States
More flights between these airports :: More routes between these airports
Route: +CNDEL3 CISKO RDHOT ROKKR1
File this flight plan on PilotEdge
Remarks: PBN / A1B1D1 DOF / 180113 REG / N101HZ EET / KZLA0025 RMK / TCAS
Altitude:
(Current/Filed)
35,000ft
Speed:
(Current/Filed)
394kts
Departed: 12-Jan-18 10:28 PM
Arrived: 12-Jan-18 11:21 PM
Distance/Time
Traveled:
278nm/0:53
Distance/Time
To Go:
Arrived

Flight Plot

Page will automatically refresh every two minutes.

Flight plan parsing failed; only flown route is shown


Map Options




Map Legend


Flown Route
Filed Route
Departure Airport
Arrival Airport
Navaid (VOR, NDB)
Fix

Horizontal Profiles

Position Reports

Time Latitude Longitude Heading Altitude Ground
Speed
12-Jan-18 22:21 37.729471 -122.211392 302 11ft 0kts
12-Jan-18 22:22 37.729471 -122.211392 302 11ft 0kts
12-Jan-18 22:23 37.729471 -122.211392 302 11ft 0kts
12-Jan-18 22:24 37.729471 -122.211392 302 11ft 0kts
12-Jan-18 22:25 37.729471 -122.211392 302 11ft 0kts
12-Jan-18 22:26 37.729471 -122.211392 302 11ft 0kts
12-Jan-18 22:27 37.729471 -122.211392 302 11ft 0kts
12-Jan-18 22:28 37.729471 -122.211392 302 11ft 0kts
12-Jan-18 22:29 37.729472 -122.211394 302 11ft 0kts
12-Jan-18 22:30 37.729497 -122.211525 262 11ft 5kts
12-Jan-18 22:31 37.728164 -122.212050 112 11ft 9kts
12-Jan-18 22:32 37.726799 -122.207869 112 11ft 13kts
12-Jan-18 22:33 37.725182 -122.204929 214 11ft 8kts
12-Jan-18 22:34 37.731779 -122.226349 291 637ft 168kts
12-Jan-18 22:35 37.756406 -122.295172 306 2563ft 211kts
12-Jan-18 22:36 37.789320 -122.348223 292 4007ft 196kts
12-Jan-18 22:37 37.748831 -122.390040 189 5844ft 235kts
12-Jan-18 22:38 37.674551 -122.410777 193 7698ft 290kts
12-Jan-18 22:39 37.596271 -122.437351 195 9389ft 300kts
12-Jan-18 22:40 37.510323 -122.462189 171 10418ft 327kts
12-Jan-18 22:41 37.429043 -122.398989 138 12973ft 372kts
12-Jan-18 22:42 37.351095 -122.307678 136 16016ft 391kts
12-Jan-18 22:43 37.271603 -122.211884 137 19124ft 398kts
12-Jan-18 22:44 37.191384 -122.115476 137 22229ft 401kts
12-Jan-18 22:45 37.106981 -122.014581 137 25339ft 434kts
12-Jan-18 22:46 37.018480 -121.909134 137 28461ft 438kts
12-Jan-18 22:47 36.931207 -121.805502 137 31553ft 426kts
12-Jan-18 22:48 36.846329 -121.704886 138 34649ft 412kts
12-Jan-18 22:49 36.760113 -121.603339 138 35337ft 451kts
12-Jan-18 22:50 36.665638 -121.492309 138 35333ft 472kts
12-Jan-18 22:51 36.570491 -121.380646 138 35333ft 467kts
12-Jan-18 22:52 36.480357 -121.275379 138 35337ft 465kts
12-Jan-18 22:53 36.385619 -121.166285 140 35346ft 464kts
12-Jan-18 22:54 36.286857 -121.062649 142 35357ft 464kts
12-Jan-18 22:55 36.187313 -120.961088 142 35374ft 464kts
12-Jan-18 22:56 36.087208 -120.859382 142 35378ft 465kts
12-Jan-18 22:57 36.008164 -120.779100 142 35383ft 466kts
12-Jan-18 22:58 35.893905 -120.663230 142 35384ft 414kts
12-Jan-18 22:59 35.829565 -120.597949 143 35377ft 344kts
12-Jan-18 23:00 35.752798 -120.520906 143 35389ft 379kts
12-Jan-18 23:01 35.664132 -120.432150 142 35388ft 439kts
12-Jan-18 23:02 35.565558 -120.332049 141 35353ft 477kts
12-Jan-18 23:03 35.462524 -120.224944 140 35322ft 493kts
12-Jan-18 23:04 35.361146 -120.119272 141 35302ft 468kts
12-Jan-18 23:05 35.262916 -120.017325 141 35296ft 460kts
12-Jan-18 23:06 35.164007 -119.915190 141 34462ft 472kts
12-Jan-18 23:07 35.063126 -119.811417 140 33151ft 470kts
12-Jan-18 23:08 34.972523 -119.718429 140 31673ft 459kts
12-Jan-18 23:09 34.880427 -119.621322 135 29500ft 422kts
12-Jan-18 23:10 34.804294 -119.515468 128 26914ft 411kts
12-Jan-18 23:11 34.734182 -119.407858 128 24181ft 399kts
12-Jan-18 23:12 34.666476 -119.303984 127 21161ft 382kts
12-Jan-18 23:13 34.612008 -119.205931 121 18115ft 352kts
12-Jan-18 23:14 34.564607 -119.110309 122 15055ft 336kts
12-Jan-18 23:15 34.502657 -119.031444 139 12016ft 308kts
12-Jan-18 23:16 34.439405 -118.972206 140 9908ft 276kts
12-Jan-18 23:17 34.384486 -118.910878 110 7762ft 262kts
12-Jan-18 23:18 34.388304 -118.830279 76 7028ft 226kts
12-Jan-18 23:19 34.378705 -118.759854 133 6613ft 230kts
12-Jan-18 23:20 34.325464 -118.709174 142 5116ft 241kts
12-Jan-18 23:21 34.276172 -118.665553 142 5022ft 202kts
12-Jan-18 23:22 34.234503 -118.627515 137 4692ft 201kts
12-Jan-18 23:23 34.193571 -118.580486 129 3784ft 203kts
12-Jan-18 23:24 34.161674 -118.533298 118 2515ft 157kts
12-Jan-18 23:25 34.159994 -118.486838 49 1641ft 144kts
12-Jan-18 23:26 34.192370 -118.488732 353 954ft 110kts
12-Jan-18 23:27 34.206766 -118.489323 88 807ft 9kts
12-Jan-18 23:28 34.205667 -118.487862 114 807ft 9kts
12-Jan-18 23:29 34.205926 -118.486936 4 807ft 0kts
12-Jan-18 23:30 34.205926 -118.486936 4 807ft 0kts
12-Jan-18 23:31 34.205926 -118.486936 4 807ft 0kts

Navigation Log

Ident Type
Flight plan parsing failed, navigation log unavailable